Time;durP1;ratioP1;P1;durP2;ratioP2;P2;SDS_P1;SDS_P2;PMS_P1;PMS_P2;Temp;Humidity;BMP_temperature;BMP_pressure;BME280_temperature;BME280_humidity;BME280_pressure;Samples;Min_cycle;Max_cycle;Signal;HPM_P1;HPM_P2
2022/09/04 00:02:43;;;;;;;4.22;3.03;;;;;;;;;;4989953;28;20030;-61
2022/09/04 00:05:19;;;;;;;4.65;3.40;;;;;;;;;;4988661;28;20037;-61
2022/09/04 00:07:56;;;;;;;4.60;3.30;;;;;;;;;;4990992;28;20068;-61
2022/09/04 00:10:30;;;;;;;4.35;3.30;;;;;;;;;;4988587;28;20026;-61
2022/09/04 00:13:07;;;;;;;4.95;3.25;;;;;;;;;;4989669;28;20038;-61
2022/09/04 00:15:39;;;;;;;5.30;3.30;;;;;;;;;;4982083;28;20038;-61
2022/09/04 00:18:10;;;;;;;5.13;3.30;;;;;;;;;;4990047;28;20402;-61
2022/09/04 00:20:44;;;;;;;4.57;3.30;;;;;;;;;;4990415;28;20034;-61
2022/09/04 00:23:33;;;;;;;6.10;3.40;;;;;;;;;;4989814;28;20095;-61
2022/09/04 00:26:07;;;;;;;4.60;3.30;;;;;;;;;;4991508;28;20084;-61
2022/09/04 00:28:43;;;;;;;4.43;3.35;;;;;;;;;;4990246;28;20198;-61
2022/09/04 00:31:18;;;;;;;4.40;3.05;;;;;;;;;;4991150;28;20044;-61
2022/09/04 00:34:17;;;;;;;4.97;3.35;;;;;;;;;;4987756;28;20109;-61
2022/09/04 00:36:49;;;;;;;6.38;3.20;;;;;;;;;;4989499;28;20037;-61
2022/09/04 00:39:19;;;;;;;4.35;3.33;;;;;;;;;;4989003;28;20121;-61
2022/09/04 00:42:04;;;;;;;4.53;3.28;;;;;;;;;;4987304;28;20643;-61
2022/09/04 00:45:14;;;;;;;4.25;3.30;;;;;;;;;;4989437;28;21299;-63
2022/09/04 00:48:04;;;;;;;4.90;3.50;;;;;;;;;;4982038;28;20114;-63
2022/09/04 00:50:35;;;;;;;7.00;3.40;;;;;;;;;;4988829;28;20049;-62
2022/09/04 00:53:10;;;;;;;6.00;3.15;;;;;;;;;;4991059;28;20038;-62
2022/09/04 00:55:59;;;;;;;4.82;3.08;;;;;;;;;;4990003;28;20041;-63
2022/09/04 00:59:06;;;;;;;5.30;3.15;;;;;;;;;;4988671;28;20044;-62
2022/09/04 01:01:32;;;;;;;4.15;3.20;;;;;;;;;;4980838;28;20206;-62
2022/09/04 01:04:19;;;;;;;5.25;3.28;;;;;;;;;;4993368;28;20479;-62
2022/09/04 01:07:09;;;;;;;4.57;3.25;;;;;;;;;;4989097;28;20041;-62
2022/09/04 01:09:46;;;;;;;3.95;3.20;;;;;;;;;;4990554;28;20041;-61
2022/09/04 01:12:48;;;;;;;4.70;3.20;;;;;;;;;;4993301;28;20068;-61
2022/09/04 01:15:34;;;;;;;6.75;3.63;;;;;;;;;;4986438;28;20380;-61
2022/09/04 01:18:10;;;;;;;4.25;3.08;;;;;;;;;;4991806;28;20026;-62
2022/09/04 01:21:11;;;;;;;4.03;3.35;;;;;;;;;;4992956;28;20077;-63
2022/09/04 01:23:58;;;;;;;6.57;3.75;;;;;;;;;;4981566;28;20046;-61
2022/09/04 01:26:31;;;;;;;5.82;3.80;;;;;;;;;;4991219;28;20041;-61
2022/09/04 01:29:19;;;;;;;4.20;3.22;;;;;;;;;;4992617;28;20546;-62
2022/09/04 01:32:04;;;;;;;4.78;3.60;;;;;;;;;;4991109;28;20403;-62
2022/09/04 01:35:00;;;;;;;6.50;3.60;;;;;;;;;;4991083;28;20034;-61
2022/09/04 01:37:54;;;;;;;5.60;3.58;;;;;;;;;;4992716;28;20058;-61
2022/09/04 01:40:22;;;;;;;7.95;3.95;;;;;;;;;;4991286;28;20062;-61
2022/09/04 01:42:54;;;;;;;6.68;3.95;;;;;;;;;;4990495;28;20038;-61
2022/09/04 01:45:46;;;;;;;7.70;3.90;;;;;;;;;;4992116;28;20042;-61
2022/09/04 01:48:21;;;;;;;6.00;3.90;;;;;;;;;;4989833;28;20052;-61
2022/09/04 01:50:52;;;;;;;5.63;3.90;;;;;;;;;;4988315;28;20041;-62
2022/09/04 01:53:24;;;;;;;7.43;3.78;;;;;;;;;;4994221;28;20043;-61
2022/09/04 01:56:30;;;;;;;7.80;4.07;;;;;;;;;;5000208;28;20519;-61
2022/09/04 01:59:19;;;;;;;7.03;3.80;;;;;;;;;;4948729;28;20496;-61
2022/09/04 02:01:55;;;;;;;6.65;3.78;;;;;;;;;;4992030;28;20501;-61
2022/09/04 02:04:38;;;;;;;6.60;3.55;;;;;;;;;;4992304;28;20472;-61
2022/09/04 02:07:06;;;;;;;8.13;3.70;;;;;;;;;;4989587;28;20038;-61
2022/09/04 02:09:50;;;;;;;6.50;3.65;;;;;;;;;;4993190;28;20388;-62
2022/09/04 02:12:20;;;;;;;9.63;4.60;;;;;;;;;;4989861;28;20043;-61
2022/09/04 02:14:57;;;;;;;6.97;3.85;;;;;;;;;;4993297;28;20030;-62
2022/09/04 02:17:47;;;;;;;6.65;4.10;;;;;;;;;;4991329;28;20048;-61
2022/09/04 02:20:28;;;;;;;7.15;4.47;;;;;;;;;;4988323;28;20043;-61
2022/09/04 02:22:58;;;;;;;9.20;4.72;;;;;;;;;;4990078;28;20432;-60
2022/09/04 02:25:42;;;;;;;8.40;4.80;;;;;;;;;;4993779;28;20030;-61
2022/09/04 02:28:37;;;;;;;9.10;4.82;;;;;;;;;;4989897;28;20043;-61
2022/09/04 02:31:20;;;;;;;8.18;4.80;;;;;;;;;;4992243;28;20037;-61
2022/09/04 02:33:59;;;;;;;7.32;4.80;;;;;;;;;;4982721;28;20065;-62
2022/09/04 02:37:06;;;;;;;6.93;4.82;;;;;;;;;;4991300;28;20049;-62
2022/09/04 02:39:55;;;;;;;10.35;4.85;;;;;;;;;;4993640;28;20121;-61
2022/09/04 02:42:30;;;;;;;7.40;4.80;;;;;;;;;;4991553;28;20088;-61
2022/09/04 02:45:17;;;;;;;7.75;4.80;;;;;;;;;;4990621;28;20652;-61
2022/09/04 02:48:06;;;;;;;7.78;5.10;;;;;;;;;;4990146;28;20038;-61
2022/09/04 02:50:44;;;;;;;7.72;5.00;;;;;;;;;;4992065;28;20038;-61
2022/09/04 02:53:28;;;;;;;7.20;5.10;;;;;;;;;;4992260;28;20042;-61
2022/09/04 02:56:09;;;;;;;9.82;5.38;;;;;;;;;;4989825;28;20061;-61
2022/09/04 02:58:59;;;;;;;7.03;5.05;;;;;;;;;;4991024;28;20042;-63
2022/09/04 03:01:43;;;;;;;6.40;4.72;;;;;;;;;;4992247;28;20093;-61
2022/09/04 03:04:14;;;;;;;8.10;4.82;;;;;;;;;;4988107;28;20088;-63
2022/09/04 03:07:01;;;;;;;7.05;4.93;;;;;;;;;;4991048;28;20471;-62
2022/09/04 03:09:29;;;;;;;8.48;5.70;;;;;;;;;;4991630;28;20042;-62
2022/09/04 03:12:27;;;;;;;8.75;5.47;;;;;;;;;;4987863;28;20030;-61
2022/09/04 03:15:26;;;;;;;9.30;5.82;;;;;;;;;;4982490;28;20554;-61
2022/09/04 03:18:01;;;;;;;8.52;5.35;;;;;;;;;;4968322;28;20483;-60
2022/09/04 03:20:29;;;;;;;8.63;5.20;;;;;;;;;;4991410;28;20442;-60
2022/09/04 03:23:18;;;;;;;7.05;5.15;;;;;;;;;;4988472;28;20855;-63
2022/09/04 03:25:49;;;;;;;8.32;5.18;;;;;;;;;;4989842;28;20058;-61
2022/09/04 03:28:52;;;;;;;6.43;5.28;;;;;;;;;;4990821;28;20125;-61
2022/09/04 03:31:55;;;;;;;8.88;5.30;;;;;;;;;;4990165;28;20038;-63
2022/09/04 03:34:35;;;;;;;8.93;4.90;;;;;;;;;;4987375;28;20046;-61
2022/09/04 03:37:40;;;;;;;9.50;4.93;;;;;;;;;;4978009;28;20038;-62
2022/09/04 03:40:05;;;;;;;10.23;4.97;;;;;;;;;;4949957;28;20035;-62
2022/09/04 03:43:09;;;;;;;7.55;4.90;;;;;;;;;;4949645;28;20043;-61
2022/09/04 03:46:02;;;;;;;7.68;4.82;;;;;;;;;;4969653;28;20042;-62
2022/09/04 03:48:49;;;;;;;7.15;4.55;;;;;;;;;;4977998;28;20038;-61
2022/09/04 03:51:44;;;;;;;7.28;4.97;;;;;;;;;;4990592;28;20415;-62
2022/09/04 03:54:57;;;;;;;6.25;4.25;;;;;;;;;;4989880;28;20451;-62
2022/09/04 03:57:49;;;;;;;6.40;4.15;;;;;;;;;;4942887;28;20050;-62
2022/09/04 04:00:18;;;;;;;6.97;4.40;;;;;;;;;;4990721;28;20050;-62
2022/09/04 04:02:44;;;;;;;6.75;4.40;;;;;;;;;;4990893;28;20479;-62
2022/09/04 04:05:51;;;;;;;6.97;4.20;;;;;;;;;;4990151;28;20069;-61
2022/09/04 04:08:33;;;;;;;5.45;4.18;;;;;;;;;;4988798;28;20030;-62
2022/09/04 04:10:58;;;;;;;7.88;4.28;;;;;;;;;;4989721;28;20100;-61
2022/09/04 04:13:24;;;;;;;4.72;4.00;;;;;;;;;;4990624;28;20034;-61
2022/09/04 04:16:24;;;;;;;6.35;4.15;;;;;;;;;;4991537;28;20027;-61
2022/09/04 04:18:51;;;;;;;9.00;4.35;;;;;;;;;;4972228;28;20038;-61
2022/09/04 04:21:20;;;;;;;6.72;4.40;;;;;;;;;;4979065;28;20644;-61
2022/09/04 04:24:08;;;;;;;8.93;4.18;;;;;;;;;;4989203;28;20044;-60
2022/09/04 04:26:55;;;;;;;6.05;4.00;;;;;;;;;;4987001;28;20080;-62
2022/09/04 04:29:51;;;;;;;6.72;4.32;;;;;;;;;;4990867;28;20118;-62
2022/09/04 04:32:39;;;;;;;7.32;4.10;;;;;;;;;;4988845;28;20026;-62
2022/09/04 04:35:11;;;;;;;6.38;4.90;;;;;;;;;;4989206;28;20038;-62
2022/09/04 04:38:03;;;;;;;8.52;4.57;;;;;;;;;;4992638;28;20027;-60
2022/09/04 04:40:44;;;;;;;7.05;4.35;;;;;;;;;;4993251;28;20042;-61
2022/09/04 04:43:40;;;;;;;9.40;4.47;;;;;;;;;;4994749;28;20386;-61
2022/09/04 04:46:19;;;;;;;6.05;4.13;;;;;;;;;;4992308;28;20030;-61
2022/09/04 04:49:06;;;;;;;5.75;4.30;;;;;;;;;;4979931;28;20034;-61
2022/09/04 04:51:52;;;;;;;7.05;4.40;;;;;;;;;;4993776;28;20065;-60
2022/09/04 04:54:42;;;;;;;5.60;4.40;;;;;;;;;;4994031;28;20564;-60
2022/09/04 04:57:52;;;;;;;5.22;4.32;;;;;;;;;;4990877;28;20038;-61
2022/09/04 05:00:23;;;;;;;7.05;4.50;;;;;;;;;;4957929;28;20869;-63
2022/09/04 05:02:50;;;;;;;;;;;;;;;;;;4989030;28;20046;-62
2022/09/04 05:05:25;;;;;;;5.75;4.18;;;;;;;;;;4994542;28;20005;-63
2022/09/04 05:08:31;;;;;;;7.30;4.10;;;;;;;;;;4989679;28;20486;-63
2022/09/04 05:11:03;;;;;;;6.75;4.30;;;;;;;;;;4994044;28;20045;-63
2022/09/04 05:13:38;;;;;;;5.90;4.43;;;;;;;;;;4991838;28;20042;-62
2022/09/04 05:16:34;;;;;;;7.00;4.57;;;;;;;;;;4994459;28;20061;-60
2022/09/04 05:19:16;;;;;;;8.10;4.28;;;;;;;;;;4986270;28;20034;-66
2022/09/04 05:22:17;;;;;;;7.60;4.22;;;;;;;;;;4992345;28;20496;-66
2022/09/04 05:25:09;;;;;;;6.00;4.53;;;;;;;;;;4993719;28;20037;-69
2022/09/04 05:27:41;;;;;;;7.32;4.03;;;;;;;;;;4980209;28;20034;-66
2022/09/04 05:30:21;;;;;;;5.43;4.47;;;;;;;;;;4992786;28;20593;-66
2022/09/04 05:33:04;;;;;;;6.07;4.57;;;;;;;;;;4991061;28;20057;-68
2022/09/04 05:35:48;;;;;;;7.25;4.15;;;;;;;;;;4993860;28;20038;-64
2022/09/04 05:38:41;;;;;;;7.10;4.40;;;;;;;;;;4991871;28;20026;-65
2022/09/04 05:41:21;;;;;;;6.68;4.68;;;;;;;;;;4991953;28;20038;-66
2022/09/04 05:43:49;;;;;;;4.95;4.13;;;;;;;;;;4992914;28;20019;-66
2022/09/04 05:46:39;;;;;;;6.40;4.55;;;;;;;;;;4993372;28;20124;-63
2022/09/04 05:49:17;;;;;;;6.10;4.23;;;;;;;;;;4984594;28;20041;-63
2022/09/04 05:52:07;;;;;;;6.88;4.43;;;;;;;;;;4993874;28;20027;-64
2022/09/04 05:55:04;;;;;;;6.63;4.47;;;;;;;;;;4993029;28;20042;-64
2022/09/04 05:57:29;;;;;;;8.00;4.78;;;;;;;;;;4978775;28;20038;-64
2022/09/04 06:00:05;;;;;;;6.25;4.38;;;;;;;;;;4992512;28;20402;-64
2022/09/04 06:02:33;;;;;;;6.57;4.95;;;;;;;;;;4993532;28;20030;-67
2022/09/04 06:05:20;;;;;;;7.78;4.53;;;;;;;;;;4977214;28;20038;-64
2022/09/04 06:08:04;;;;;;;6.32;4.70;;;;;;;;;;4991457;28;20039;-66
2022/09/04 06:10:59;;;;;;;5.57;4.40;;;;;;;;;;4991807;28;20046;-65
2022/09/04 06:14:16;;;;;;;6.40;4.53;;;;;;;;;;4991656;28;20062;-65
2022/09/04 06:17:15;;;;;;;6.50;4.57;;;;;;;;;;4988573;28;20053;-64
2022/09/04 06:20:01;;;;;;;5.35;4.53;;;;;;;;;;4992662;28;20030;-63
2022/09/04 06:22:35;;;;;;;5.85;4.57;;;;;;;;;;4992593;28;20030;-64
2022/09/04 06:25:15;;;;;;;7.10;4.53;;;;;;;;;;4991164;28;20034;-65
2022/09/04 06:28:09;;;;;;;6.53;4.70;;;;;;;;;;4992931;28;20022;-64
2022/09/04 06:31:03;;;;;;;7.78;4.55;;;;;;;;;;4991169;28;20104;-66
2022/09/04 06:33:58;;;;;;;6.13;4.20;;;;;;;;;;4986371;28;20117;-65
2022/09/04 06:36:34;;;;;;;5.95;4.55;;;;;;;;;;4983352;28;20050;-65
2022/09/04 06:39:05;;;;;;;7.53;4.60;;;;;;;;;;4988491;28;20472;-65
2022/09/04 06:41:31;;;;;;;7.78;4.70;;;;;;;;;;4992171;28;20042;-65
2022/09/04 06:44:46;;;;;;;6.63;4.90;;;;;;;;;;4991820;28;20089;-66
2022/09/04 06:47:33;;;;;;;7.18;4.55;;;;;;;;;;4961165;28;20054;-66
2022/09/04 06:50:17;;;;;;;5.45;4.30;;;;;;;;;;4990643;28;20042;-65
2022/09/04 06:52:58;;;;;;;8.10;4.47;;;;;;;;;;4993874;28;20109;-64
2022/09/04 06:55:31;;;;;;;5.97;4.57;;;;;;;;;;4974030;28;20126;-66
2022/09/04 06:58:05;;;;;;;9.23;4.80;;;;;;;;;;4989686;28;20456;-65
2022/09/04 07:00:41;;;;;;;7.43;4.75;;;;;;;;;;4991666;28;20407;-65
2022/09/04 07:03:21;;;;;;;7.53;4.30;;;;;;;;;;4990912;28;20054;-66
2022/09/04 07:06:33;;;;;;;7.47;4.28;;;;;;;;;;4993573;28;20555;-65
2022/09/04 07:09:17;;;;;;;6.43;3.95;;;;;;;;;;4953892;28;20050;-66
2022/09/04 07:12:13;;;;;;;6.13;4.05;;;;;;;;;;4986309;28;20030;-65
2022/09/04 07:14:55;;;;;;;6.65;4.15;;;;;;;;;;5001296;28;20038;-65
2022/09/04 07:17:32;;;;;;;5.40;4.00;;;;;;;;;;5000095;28;20069;-65
2022/09/04 07:20:18;;;;;;;7.40;4.20;;;;;;;;;;4991162;28;20047;-65
2022/09/04 07:22:56;;;;;;;7.50;4.63;;;;;;;;;;4990398;28;20093;-65
2022/09/04 07:25:31;;;;;;;7.05;4.60;;;;;;;;;;4989602;28;20034;-65
2022/09/04 07:28:21;;;;;;;7.88;4.28;;;;;;;;;;4991464;28;20045;-66
2022/09/04 07:30:52;;;;;;;5.53;4.43;;;;;;;;;;4992795;28;20026;-65
2022/09/04 07:33:30;;;;;;;5.72;4.10;;;;;;;;;;4988747;28;20062;-67
2022/09/04 07:36:21;;;;;;;8.55;4.65;;;;;;;;;;4987148;28;20116;-65
2022/09/04 07:39:01;;;;;;;6.00;4.60;;;;;;;;;;4991500;28;20051;-66
2022/09/04 07:41:39;;;;;;;5.20;4.28;;;;;;;;;;4991665;28;20042;-66
2022/09/04 07:44:26;;;;;;;7.00;4.20;;;;;;;;;;4991863;28;20042;-65
2022/09/04 07:47:11;;;;;;;6.78;4.45;;;;;;;;;;4990504;28;20100;-68
2022/09/04 07:49:51;;;;;;;5.55;4.10;;;;;;;;;;4992566;28;20470;-66
2022/09/04 07:52:31;;;;;;;7.22;4.65;;;;;;;;;;4989745;28;20038;-64
2022/09/04 07:55:10;;;;;;;6.03;4.20;;;;;;;;;;4990935;28;20042;-67
2022/09/04 07:58:02;;;;;;;5.43;4.10;;;;;;;;;;4992628;28;20034;-65
2022/09/04 08:00:50;;;;;;;7.50;4.28;;;;;;;;;;4991504;28;20055;-64
2022/09/04 08:03:16;;;;;;;7.18;4.47;;;;;;;;;;4990153;28;20060;-65
2022/09/04 08:06:13;;;;;;;7.63;4.40;;;;;;;;;;4988498;28;20467;-65
2022/09/04 08:08:53;;;;;;;5.90;4.25;;;;;;;;;;4989576;28;20502;-67
2022/09/04 08:11:37;;;;;;;7.80;4.40;;;;;;;;;;4992771;28;20070;-65
2022/09/04 08:14:08;;;;;;;6.97;4.32;;;;;;;;;;4994396;28;20435;-64
2022/09/04 08:17:09;;;;;;;6.80;4.13;;;;;;;;;;4996355;28;20026;-65
2022/09/04 08:19:53;;;;;;;6.35;4.28;;;;;;;;;;4985723;28;20084;-66
2022/09/04 08:22:45;;;;;;;7.20;4.00;;;;;;;;;;4994125;28;20117;-66
2022/09/04 08:25:42;;;;;;;6.25;3.90;;;;;;;;;;4994151;28;20122;-66
2022/09/04 08:28:55;;;;;;;4.40;3.50;;;;;;;;;;4991257;28;20030;-64
2022/09/04 08:31:36;;;;;;;5.20;4.18;;;;;;;;;;4985192;28;20046;-60
2022/09/04 08:34:45;;;;;;;6.60;3.90;;;;;;;;;;4991711;28;20073;-61
2022/09/04 08:37:29;;;;;;;7.03;3.90;;;;;;;;;;4993971;28;20026;-60
2022/09/04 08:40:03;;;;;;;10.15;3.80;;;;;;;;;;4995194;28;20026;-61
2022/09/04 08:43:02;;;;;;;7.30;4.00;;;;;;;;;;4995553;28;20407;-61
2022/09/04 08:45:43;;;;;;;6.13;4.00;;;;;;;;;;4995520;28;20034;-61
2022/09/04 08:48:40;;;;;;;6.82;4.47;;;;;;;;;;4989695;28;20053;-61
2022/09/04 08:51:15;;;;;;;5.10;3.30;;;;;;;;;;4975749;28;20090;-61
2022/09/04 08:54:29;;;;;;;7.65;4.70;;;;;;;;;;4976225;28;20051;-60
2022/09/04 08:57:26;;;;;;;5.50;4.20;;;;;;;;;;4949413;28;20122;-61
2022/09/04 09:00:15;;;;;;;6.25;3.95;;;;;;;;;;4993601;28;20069;-61
2022/09/04 09:02:55;;;;;;;6.38;4.40;;;;;;;;;;4995651;28;20035;-62
2022/09/04 09:05:58;;;;;;;5.65;4.32;;;;;;;;;;4993291;28;20030;-60
2022/09/04 09:09:00;;;;;;;5.95;4.20;;;;;;;;;;4995043;28;20034;-60
2022/09/04 09:12:03;;;;;;;5.95;4.30;;;;;;;;;;4995625;28;20093;-60
2022/09/04 09:14:34;;;;;;;5.32;4.00;;;;;;;;;;4994426;28;20034;-60
2022/09/04 09:17:04;;;;;;;8.05;3.90;;;;;;;;;;4992864;28;20030;-61
2022/09/04 09:19:44;;;;;;;5.33;3.63;;;;;;;;;;4994364;28;20034;-60
2022/09/04 09:22:37;;;;;;;6.50;3.42;;;;;;;;;;4994180;28;20248;-60
2022/09/04 09:25:08;;;;;;;5.53;3.70;;;;;;;;;;4992126;28;20054;-60
2022/09/04 09:28:01;;;;;;;12.48;3.60;;;;;;;;;;4994984;28;20037;-60
2022/09/04 09:30:55;;;;;;;4.53;3.40;;;;;;;;;;4988608;28;20050;-60
2022/09/04 09:33:50;;;;;;;5.95;3.80;;;;;;;;;;4969259;28;20049;-60
2022/09/04 09:36:35;;;;;;;4.80;3.80;;;;;;;;;;4986984;28;20391;-61
2022/09/04 09:39:21;;;;;;;6.25;3.97;;;;;;;;;;4993849;28;20475;-61
2022/09/04 09:42:12;;;;;;;5.50;4.28;;;;;;;;;;4973106;28;20046;-61
2022/09/04 09:44:50;;;;;;;5.10;3.88;;;;;;;;;;4994750;28;20034;-60
2022/09/04 09:47:30;;;;;;;5.68;4.05;;;;;;;;;;4992062;28;20509;-61
2022/09/04 09:50:43;;;;;;;4.78;3.80;;;;;;;;;;4992918;28;20038;-61
2022/09/04 09:53:08;;;;;;;5.15;3.53;;;;;;;;;;4971756;28;20520;-61
2022/09/04 09:55:36;;;;;;;5.53;3.85;;;;;;;;;;4970145;28;20045;-62
2022/09/04 09:58:20;;;;;;;4.57;3.42;;;;;;;;;;4972017;28;20121;-61
2022/09/04 10:01:08;;;;;;;4.82;3.72;;;;;;;;;;4972666;28;20073;-60
2022/09/04 10:03:42;;;;;;;5.82;4.28;;;;;;;;;;4972901;28;20415;-60
2022/09/04 10:06:19;;;;;;;5.95;3.63;;;;;;;;;;4970840;28;20039;-60
2022/09/04 10:09:09;;;;;;;5.65;3.88;;;;;;;;;;4955569;28;20121;-60
2022/09/04 10:11:38;;;;;;;5.20;3.70;;;;;;;;;;4972393;28;20043;-60
2022/09/04 10:14:32;;;;;;;6.65;3.45;;;;;;;;;;4971581;28;20035;-60
2022/09/04 10:17:35;;;;;;;6.03;3.55;;;;;;;;;;4971460;28;20181;-60
2022/09/04 10:20:09;;;;;;;5.63;3.90;;;;;;;;;;4972356;28;20039;-61
2022/09/04 10:22:59;;;;;;;5.90;3.50;;;;;;;;;;4968468;28;20420;-60
2022/09/04 10:26:02;;;;;;;4.45;3.50;;;;;;;;;;4982068;28;20046;-60
2022/09/04 10:29:08;;;;;;;5.68;3.60;;;;;;;;;;4974266;28;20483;-61
2022/09/04 10:31:51;;;;;;;5.82;3.40;;;;;;;;;;4991139;28;20033;-61
2022/09/04 10:34:53;;;;;;;7.82;3.50;;;;;;;;;;4976205;28;20030;-60
2022/09/04 10:37:39;;;;;;;4.88;3.30;;;;;;;;;;4992904;28;20038;-60
2022/09/04 10:40:43;;;;;;;7.95;3.55;;;;;;;;;;4991866;28;20034;-60
2022/09/04 10:43:23;;;;;;;4.63;3.30;;;;;;;;;;4990839;28;20034;-60
2022/09/04 10:45:56;;;;;;;;;;;;;;;;;;4992916;28;20101;-60
2022/09/04 10:48:39;;;;;;;4.93;3.55;;;;;;;;;;4992492;28;20671;-60
2022/09/04 10:51:49;;;;;;;6.15;3.70;;;;;;;;;;4992988;28;20034;-62
2022/09/04 10:54:43;;;;;;;5.60;3.30;;;;;;;;;;4982797;28;20042;-62
2022/09/04 10:57:28;;;;;;;4.50;3.40;;;;;;;;;;4991423;28;20053;-61
2022/09/04 11:00:09;;;;;;;4.70;3.40;;;;;;;;;;4992995;28;20046;-60
2022/09/04 11:02:35;;;;;;;5.43;3.15;;;;;;;;;;4991054;28;20040;-60
2022/09/04 11:05:03;;;;;;;5.65;3.17;;;;;;;;;;4992742;28;20109;-60
2022/09/04 11:07:36;;;;;;;4.13;3.20;;;;;;;;;;4992504;28;20389;-60
2022/09/04 11:10:49;;;;;;;5.93;3.13;;;;;;;;;;4992894;28;20550;-60
2022/09/04 11:13:56;;;;;;;6.90;3.47;;;;;;;;;;4980111;28;20053;-60
2022/09/04 11:16:46;;;;;;;3.80;3.17;;;;;;;;;;4991241;28;20034;-60
2022/09/04 11:19:36;;;;;;;3.67;3.03;;;;;;;;;;4992216;28;20042;-61
2022/09/04 11:22:13;;;;;;;6.55;3.75;;;;;;;;;;4992974;28;20026;-60
2022/09/04 11:25:00;;;;;;;4.05;3.00;;;;;;;;;;4987433;28;20029;-60
2022/09/04 11:27:57;;;;;;;4.90;3.08;;;;;;;;;;4972681;28;20030;-60
2022/09/04 11:30:50;;;;;;;3.65;2.80;;;;;;;;;;4972414;28;20027;-61
2022/09/04 11:33:47;;;;;;;3.88;2.65;;;;;;;;;;4978810;28;20062;-61
2022/09/04 11:36:51;;;;;;;3.58;2.55;;;;;;;;;;4991818;28;20026;-61
2022/09/04 11:40:00;;;;;;;4.43;2.70;;;;;;;;;;4991854;28;20489;-61
2022/09/04 11:43:12;;;;;;;4.50;2.70;;;;;;;;;;4981090;28;20049;-61
2022/09/04 11:46:16;;;;;;;3.28;2.40;;;;;;;;;;4992763;28;20045;-61
2022/09/04 11:49:09;;;;;;;5.75;3.08;;;;;;;;;;4992626;28;20034;-61
2022/09/04 11:51:49;;;;;;;3.20;2.50;;;;;;;;;;4992014;28;20042;-59
2022/09/04 11:54:23;;;;;;;2.72;2.50;;;;;;;;;;4991949;28;20161;-60
2022/09/04 11:56:54;;;;;;;4.93;2.58;;;;;;;;;;4992553;28;20026;-61
2022/09/04 11:59:19;;;;;;;4.22;2.70;;;;;;;;;;4991405;28;20062;-61
2022/09/04 12:01:48;;;;;;;4.30;2.70;;;;;;;;;;4991817;28;20038;-61
2022/09/04 12:04:27;;;;;;;4.85;2.60;;;;;;;;;;4991430;28;20046;-62
2022/09/04 12:07:40;;;;;;;2.85;2.40;;;;;;;;;;4992694;28;20456;-60
2022/09/04 12:10:34;;;;;;;4.47;2.50;;;;;;;;;;4987622;28;20073;-62
2022/09/04 12:13:27;;;;;;;5.32;2.80;;;;;;;;;;4980072;28;20034;-61
2022/09/04 12:16:06;;;;;;;4.57;3.70;;;;;;;;;;4992685;28;20391;-62
2022/09/04 12:18:46;;;;;;;3.92;2.63;;;;;;;;;;4991646;28;20044;-61
2022/09/04 12:21:36;;;;;;;5.30;3.08;;;;;;;;;;4990781;28;20382;-61
2022/09/04 12:24:01;;;;;;;4.05;2.75;;;;;;;;;;4991568;28;20046;-61
2022/09/04 12:26:54;;;;;;;3.22;2.30;;;;;;;;;;4973058;28;20031;-61
2022/09/04 12:29:50;;;;;;;3.75;2.70;;;;;;;;;;4972012;28;20108;-61
2022/09/04 12:32:51;;;;;;;2.88;2.45;;;;;;;;;;4984621;28;20546;-62
2022/09/04 12:35:25;;;;;;;2.70;2.30;;;;;;;;;;4968661;28;20078;-62
2022/09/04 12:37:55;;;;;;;4.60;2.20;;;;;;;;;;4972948;28;20035;-62
2022/09/04 12:40:29;;;;;;;2.53;2.17;;;;;;;;;;4997744;28;20030;-61
2022/09/04 12:42:56;;;;;;;2.60;2.03;;;;;;;;;;4992671;28;20280;-61
2022/09/04 12:45:39;;;;;;;2.47;2.28;;;;;;;;;;4989650;28;20125;-61
2022/09/04 12:48:18;;;;;;;3.70;2.10;;;;;;;;;;4989774;28;20034;-61
2022/09/04 12:50:49;;;;;;;3.05;2.28;;;;;;;;;;4988381;28;20125;-64
2022/09/04 12:53:27;;;;;;;5.80;2.10;;;;;;;;;;4986308;28;20038;-62
2022/09/04 12:56:16;;;;;;;4.40;2.10;;;;;;;;;;4990211;28;20030;-61
2022/09/04 12:59:00;;;;;;;2.92;2.30;;;;;;;;;;4994120;28;20046;-62
2022/09/04 13:02:03;;;;;;;3.60;2.08;;;;;;;;;;4994965;28;20042;-62
2022/09/04 13:04:28;;;;;;;2.42;2.00;;;;;;;;;;4995002;28;20030;-61
2022/09/04 13:07:15;;;;;;;2.30;2.10;;;;;;;;;;4993079;28;20395;-61
2022/09/04 13:10:02;;;;;;;3.53;2.00;;;;;;;;;;4988488;28;20030;-62
2022/09/04 13:12:41;;;;;;;2.97;2.20;;;;;;;;;;4972450;28;20047;-62
2022/09/04 13:15:07;;;;;;;3.10;2.27;;;;;;;;;;4974957;28;20105;-61
2022/09/04 13:17:42;;;;;;;3.30;2.30;;;;;;;;;;4972154;28;20110;-61
2022/09/04 13:20:26;;;;;;;5.57;2.40;;;;;;;;;;4969133;28;20133;-60
2022/09/04 13:23:22;;;;;;;3.95;2.40;;;;;;;;;;4973600;28;20045;-61
2022/09/04 13:25:53;;;;;;;3.33;2.47;;;;;;;;;;4963129;28;20061;-61
2022/09/04 13:28:46;;;;;;;4.53;2.60;;;;;;;;;;4968897;28;20146;-61
2022/09/04 13:31:18;;;;;;;4.88;2.40;;;;;;;;;;4967514;28;20081;-61
2022/09/04 13:33:55;;;;;;;5.43;2.42;;;;;;;;;;4970465;28;20368;-61
2022/09/04 13:36:34;;;;;;;4.35;2.75;;;;;;;;;;4973223;28;20035;-61
2022/09/04 13:39:18;;;;;;;3.15;2.40;;;;;;;;;;4975747;28;20509;-61
2022/09/04 13:42:09;;;;;;;4.53;2.50;;;;;;;;;;4974244;28;20030;-61
2022/09/04 13:44:56;;;;;;;3.20;2.15;;;;;;;;;;4971525;28;20696;-62
2022/09/04 13:47:29;;;;;;;2.40;2.10;;;;;;;;;;4972988;28;22061;-62
2022/09/04 13:50:40;;;;;;;5.60;2.47;;;;;;;;;;4974233;28;20042;-61
2022/09/04 13:53:24;;;;;;;2.85;2.10;;;;;;;;;;4934561;29;20032;-63
2022/09/04 13:55:57;;;;;;;3.10;2.10;;;;;;;;;;4934534;29;20087;-62
2022/09/04 13:58:37;;;;;;;2.10;1.77;;;;;;;;;;4931934;29;20114;-63
2022/09/04 14:01:08;;;;;;;2.85;1.70;;;;;;;;;;4934483;29;20059;-63
2022/09/04 14:03:40;;;;;;;2.30;1.60;;;;;;;;;;4932974;29;20508;-62
2022/09/04 14:06:08;;;;;;;2.20;1.75;;;;;;;;;;4932324;29;20039;-62
2022/09/04 14:08:36;;;;;;;3.00;2.00;;;;;;;;;;4927578;29;20188;-63
2022/09/04 14:11:22;;;;;;;3.15;1.77;;;;;;;;;;4931893;29;20048;-62
2022/09/04 14:14:23;;;;;;;3.03;1.90;;;;;;;;;;4917863;29;20036;-61
2022/09/04 14:16:51;;;;;;;3.08;1.80;;;;;;;;;;4932967;29;20135;-63
2022/09/04 14:19:35;;;;;;;2.45;1.70;;;;;;;;;;4932440;29;20444;-62
2022/09/04 14:22:22;;;;;;;4.65;2.00;;;;;;;;;;4932613;29;20043;-60
2022/09/04 14:24:58;;;;;;;3.80;2.05;;;;;;;;;;4968764;28;20050;-61
2022/09/04 14:27:50;;;;;;;4.07;2.25;;;;;;;;;;4973970;28;20038;-61
2022/09/04 14:30:18;;;;;;;4.10;1.90;;;;;;;;;;4971473;28;20054;-61
2022/09/04 14:32:56;;;;;;;2.72;2.10;;;;;;;;;;4972033;28;20034;-61
2022/09/04 14:36:16;;;;;;;4.45;2.30;;;;;;;;;;4971587;28;20467;-61
2022/09/04 14:39:13;;;;;;;3.28;2.05;;;;;;;;;;4950984;29;20038;-61
2022/09/04 14:42:03;;;;;;;3.72;1.90;;;;;;;;;;4972426;28;20035;-61
2022/09/04 14:44:32;;;;;;;;;;;;;;;;;;4972926;28;20030;-61
2022/09/04 14:47:21;;;;;;;2.83;2.10;;;;;;;;;;4974085;28;19917;-61
2022/09/04 14:49:49;;;;;;;2.40;2.00;;;;;;;;;;4971882;28;20480;-61
2022/09/04 14:52:27;;;;;;;2.13;1.92;;;;;;;;;;4972904;28;20523;-61
2022/09/04 14:54:56;;;;;;;2.25;2.05;;;;;;;;;;4972323;28;20376;-61
2022/09/04 14:57:54;;;;;;;2.45;1.95;;;;;;;;;;4953789;28;20031;-63
2022/09/04 15:00:20;;;;;;;3.83;1.80;;;;;;;;;;4971935;28;20043;-61
2022/09/04 15:03:10;;;;;;;9.13;2.15;;;;;;;;;;4969345;28;20046;-62
2022/09/04 15:05:47;;;;;;;1.80;1.70;;;;;;;;;;4971421;28;20046;-61
2022/09/04 15:08:32;;;;;;;4.30;2.00;;;;;;;;;;4973851;28;20038;-61
2022/09/04 15:11:02;;;;;;;2.63;2.00;;;;;;;;;;4968950;28;20432;-61
2022/09/04 15:13:27;;;;;;;3.10;2.03;;;;;;;;;;4972361;28;20035;-61
2022/09/04 15:16:10;;;;;;;3.05;2.28;;;;;;;;;;4971807;28;20042;-61
2022/09/04 15:18:54;;;;;;;3.15;2.50;;;;;;;;;;4970747;28;20039;-61
2022/09/04 15:21:43;;;;;;;3.90;2.40;;;;;;;;;;4972291;28;20399;-63
2022/09/04 15:24:23;;;;;;;3.25;2.50;;;;;;;;;;4971345;28;20031;-61
2022/09/04 15:26:54;;;;;;;5.47;2.50;;;;;;;;;;4972819;28;20038;-61
2022/09/04 15:29:26;;;;;;;3.85;2.15;;;;;;;;;;4969727;28;20049;-62
2022/09/04 15:32:01;;;;;;;5.47;2.50;;;;;;;;;;4973566;28;20031;-61
2022/09/04 15:34:29;;;;;;;3.78;2.47;;;;;;;;;;4970220;28;20110;-61
2022/09/04 15:37:12;;;;;;;5.15;2.40;;;;;;;;;;4953827;29;20070;-61
2022/09/04 15:39:53;;;;;;;2.75;2.30;;;;;;;;;;4953476;28;20464;-60
2022/09/04 15:43:02;;;;;;;5.32;3.22;;;;;;;;;;4954540;28;20034;-60
2022/09/04 15:45:49;;;;;;;5.93;2.35;;;;;;;;;;4950611;29;20096;-60
2022/09/04 15:48:52;;;;;;;4.15;2.70;;;;;;;;;;4962805;28;20035;-60
2022/09/04 15:51:36;;;;;;;3.65;2.70;;;;;;;;;;4969146;28;20055;-60
2022/09/04 15:54:29;;;;;;;4.03;2.67;;;;;;;;;;4973807;28;20028;-62
2022/09/04 15:57:05;;;;;;;5.35;2.40;;;;;;;;;;4965062;28;20109;-63
2022/09/04 15:59:43;;;;;;;3.60;2.58;;;;;;;;;;4971191;28;20121;-60
2022/09/04 16:02:37;;;;;;;6.72;2.33;;;;;;;;;;4954365;28;20074;-60
2022/09/04 16:05:54;;;;;;;5.18;2.40;;;;;;;;;;4953860;28;20091;-61
2022/09/04 16:08:29;;;;;;;3.67;2.20;;;;;;;;;;4956603;28;20050;-61
2022/09/04 16:11:02;;;;;;;3.20;2.00;;;;;;;;;;4971883;28;20067;-60
2022/09/04 16:13:58;;;;;;;2.63;1.95;;;;;;;;;;4970385;28;20031;-61
2022/09/04 16:16:48;;;;;;;3.75;2.35;;;;;;;;;;4970185;28;20043;-63
2022/09/04 16:19:43;;;;;;;4.10;2.30;;;;;;;;;;4965072;28;20419;-61
2022/09/04 16:22:46;;;;;;;3.70;2.13;;;;;;;;;;4953418;28;20031;-62
2022/09/04 16:25:18;;;;;;;4.25;2.30;;;;;;;;;;4955992;28;20031;-60
2022/09/04 16:27:48;;;;;;;3.97;1.95;;;;;;;;;;4971169;28;20560;-60